• Join FlightAware (Why Join?)
  • Login
  • US Flag 
10:02PM EDT


 

Airport Tracker/Info


-or-


 

Live Flight TrackerFlight Track Log ✈ CES2279 ✈ 12-Jun-2013 ✈ ZLXN / XNN - ZLGM / GOQ

Flight Track Log - Related Links

Times and Time Zones

All times are in EDT time to prevent confusion due to time zone crossing. See the CES2279 flight status page for this flight to view local times or setup timezone preferences in your user account.

Time Position Orientation Groundspeed Altitude Reporting Facility
EDT Latitude Longitude Course Direction KTS MPH feet Rate Location/Type
02:14AM 36.5098 97.9544 271° West  Level Estimated
02:15AM 36.5073 97.8409 268° West  Level Estimated
02:16AM 36.5047 97.7274 268° West  Level Estimated
02:17AM 36.5020 97.6139 268° West  Level Estimated
02:18AM 36.4992 97.5004 268° West  Level Estimated
02:19AM 36.4963 97.3869 268° West  Level Estimated
02:20AM 36.4933 97.2735 268° West  Level Estimated
02:21AM 36.4902 97.1600 268° West  Level Estimated
02:22AM 36.4869 97.0466 268° West  Level Estimated
02:23AM 36.4836 96.9331 268° West  Level Estimated
02:24AM 36.4801 96.8197 268° West  Level Estimated
02:25AM 36.4766 96.7063 268° West  Level Estimated
02:26AM 36.4729 96.5929 268° West  Level Estimated
02:27AM 36.4692 96.4795 268° West  Level Estimated
02:28AM 36.4653 96.3661 268° West  Level Estimated
02:29AM 36.4613 96.2528 268° West  Level Estimated
02:30AM 36.4572 96.1394 267° West  Level Estimated
02:31AM 36.4530 96.0260 267° West  Level Estimated
02:32AM 36.4487 95.9127 267° West  Level Estimated
02:33AM 36.4443 95.7994 267° West  Level Estimated
02:34AM 36.4397 95.6861 267° West  Level Estimated
02:35AM 36.4351 95.5728 267° West  Level Estimated
02:36AM 36.4304 95.4595 267° West  Level Estimated
02:37AM 36.4255 95.3462 267° West  Level Estimated
02:38AM 36.4206 95.2330 267° West  Level Estimated
02:39AM 36.4155 95.1198 267° West  Level Estimated
02:40AM 36.4104 95.0065 267° West  Level Estimated
02:41AM 36.4051 94.8933 267° West  Level Estimated
02:42AM 36.4000 94.7861 267° West  Level Estimated
02:43AM 36.4000 94.7861 90° East  Level Estimated
02:44AM 36.4000 94.7861 90° East  Level Estimated
02:45AM 36.4000 94.7861 90° East  Level Estimated
02:46AM 36.4000 94.7861 90° East  Level Estimated
02:47AM 36.4000 94.7861 90° East  Level Estimated
02:48AM 36.4000 94.7861 90° East  Level Estimated
02:49AM 36.4000 94.7861 90° East  Level Estimated
02:50AM 36.4000 94.7861 90° East  Level Estimated
02:51AM 36.4000 94.7861 90° East  Level Estimated
02:52AM 36.4000 94.7861 90° East  Level Estimated
02:53AM 36.4000 94.7861 90° East  Level Estimated